createdAt,value
2018-07-29T00:00:03.813Z,24.50
2018-07-29T00:00:35.529Z,24.50
2018-07-29T00:01:07.265Z,24.50
2018-07-29T00:01:38.993Z,24.50
2018-07-29T00:02:10.724Z,24.60
2018-07-29T00:02:42.448Z,24.60
2018-07-29T00:03:14.169Z,24.50
2018-07-29T00:03:45.905Z,24.50
2018-07-29T00:04:17.621Z,24.60
2018-07-29T00:04:49.369Z,24.50
2018-07-29T00:05:21.109Z,24.50
2018-07-29T00:05:53.071Z,24.50
2018-07-29T00:06:56.814Z,24.50
2018-07-29T00:07:28.645Z,24.50
2018-07-29T00:08:00.330Z,24.50
2018-07-29T00:08:32.045Z,24.50
2018-07-29T00:09:03.797Z,24.50
2018-07-29T00:09:35.530Z,24.50
2018-07-29T00:10:07.252Z,24.50
2018-07-29T00:10:38.981Z,24.50
2018-07-29T00:11:10.706Z,24.50
2018-07-29T00:11:42.425Z,24.50
2018-07-29T00:12:14.164Z,24.50
2018-07-29T00:12:46.764Z,24.50
2018-07-29T00:13:18.509Z,24.50
2018-07-29T00:13:50.238Z,24.50
2018-07-29T00:14:21.971Z,24.50
2018-07-29T00:14:53.691Z,24.50
2018-07-29T00:15:25.431Z,24.50
2018-07-29T00:15:57.174Z,24.50
2018-07-29T00:16:28.894Z,24.50
2018-07-29T00:17:00.621Z,24.50
2018-07-29T00:17:32.346Z,24.50
2018-07-29T00:18:04.074Z,24.50
2018-07-29T00:18:35.813Z,24.50
2018-07-29T00:19:07.537Z,24.50
2018-07-29T00:19:39.274Z,24.50
2018-07-29T00:20:10.993Z,24.50
2018-07-29T00:20:42.713Z,24.50
2018-07-29T00:21:14.470Z,24.50
2018-07-29T00:21:46.199Z,24.50
2018-07-29T00:22:17.918Z,24.50
2018-07-29T00:22:49.645Z,24.50
2018-07-29T00:23:21.378Z,24.50
2018-07-29T00:23:53.124Z,24.50
2018-07-29T00:24:24.845Z,24.50
2018-07-29T00:24:56.562Z,24.40
2018-07-29T00:25:28.454Z,24.40
2018-07-29T00:26:00.145Z,24.40
2018-07-29T00:26:31.902Z,24.40
2018-07-29T00:27:03.641Z,24.50
2018-07-29T00:27:35.364Z,24.50
2018-07-29T00:28:07.126Z,24.40
2018-07-29T00:28:38.853Z,24.50
2018-07-29T00:29:10.580Z,24.50
2018-07-29T00:29:42.320Z,24.50
2018-07-29T00:30:14.049Z,24.40
2018-07-29T00:30:45.885Z,24.40
2018-07-29T00:31:17.587Z,24.40
2018-07-29T00:31:49.349Z,24.40
2018-07-29T00:32:21.093Z,24.50
2018-07-29T00:32:52.792Z,24.40
2018-07-29T00:33:24.522Z,24.50
2018-07-29T00:33:56.262Z,24.50
2018-07-29T00:34:27.981Z,24.50
2018-07-29T00:34:59.706Z,24.50
2018-07-29T00:35:31.461Z,24.50
2018-07-29T00:36:03.184Z,24.50
2018-07-29T00:36:34.906Z,24.50
2018-07-29T00:37:06.649Z,24.60
2018-07-29T00:37:38.371Z,24.50
2018-07-29T00:38:10.095Z,24.50
2018-07-29T00:38:41.829Z,24.50
2018-07-29T00:39:13.566Z,24.50
2018-07-29T00:39:45.283Z,24.60
2018-07-29T00:40:17.039Z,24.50
2018-07-29T00:40:48.762Z,24.50
2018-07-29T00:41:20.495Z,24.50
2018-07-29T00:41:52.253Z,24.50
2018-07-29T00:42:24.174Z,24.50
2018-07-29T00:42:55.905Z,24.60
2018-07-29T00:43:27.630Z,24.50
2018-07-29T00:43:59.376Z,24.50
2018-07-29T00:44:31.101Z,24.40
2018-07-29T00:45:02.826Z,24.40
2018-07-29T00:45:34.589Z,24.50
2018-07-29T00:46:06.297Z,24.40
2018-07-29T00:46:38.028Z,24.40
2018-07-29T00:47:09.769Z,24.40
2018-07-29T00:47:41.497Z,24.40
2018-07-29T00:48:13.216Z,24.40
2018-07-29T00:48:44.943Z,24.40
2018-07-29T00:49:16.664Z,24.50
2018-07-29T00:49:48.389Z,24.40
2018-07-29T00:50:20.127Z,24.40
2018-07-29T00:50:51.842Z,24.40
2018-07-29T00:51:23.561Z,24.50
2018-07-29T00:51:55.288Z,24.40
2018-07-29T00:52:27.017Z,24.40
2018-07-29T00:52:58.802Z,24.40
2018-07-29T00:53:30.676Z,24.40
2018-07-29T00:54:02.418Z,24.50
2018-07-29T00:54:34.135Z,24.50
2018-07-29T00:55:05.858Z,24.50
2018-07-29T00:55:37.597Z,24.50
2018-07-29T00:56:09.332Z,24.50
2018-07-29T00:56:41.245Z,24.50
2018-07-29T00:57:13.013Z,24.50
2018-07-29T00:57:44.731Z,24.50
2018-07-29T00:58:16.468Z,24.50
2018-07-29T00:58:48.195Z,24.50
2018-07-29T00:59:19.922Z,24.50
2018-07-29T00:59:51.666Z,24.50
2018-07-29T01:00:23.401Z,24.50
2018-07-29T01:00:55.128Z,24.50
2018-07-29T01:01:26.883Z,24.50
2018-07-29T01:01:58.679Z,24.50
2018-07-29T01:02:30.390Z,24.50
2018-07-29T01:03:02.143Z,24.50
2018-07-29T01:03:33.862Z,24.50
2018-07-29T01:04:05.594Z,24.50
2018-07-29T01:04:37.309Z,24.50
2018-07-29T01:05:09.038Z,24.50
2018-07-29T01:05:40.757Z,24.50
2018-07-29T01:06:12.498Z,24.50
2018-07-29T01:06:44.242Z,24.40
2018-07-29T01:07:15.961Z,24.50
2018-07-29T01:07:47.688Z,24.50
2018-07-29T01:08:19.411Z,24.50
2018-07-29T01:08:51.137Z,24.50
2018-07-29T01:09:22.882Z,24.50
2018-07-29T01:09:54.596Z,24.50
2018-07-29T01:10:26.330Z,24.50
2018-07-29T01:10:58.034Z,24.50
2018-07-29T01:11:29.756Z,24.60
2018-07-29T01:12:01.482Z,24.60
2018-07-29T01:12:33.206Z,24.50
2018-07-29T01:13:04.941Z,24.60
2018-07-29T01:13:36.666Z,24.60
2018-07-29T01:14:08.394Z,24.60
2018-07-29T01:14:40.126Z,24.60
2018-07-29T01:15:11.838Z,24.60
2018-07-29T01:15:43.577Z,24.50
2018-07-29T01:16:15.305Z,24.60
2018-07-29T01:16:47.040Z,24.60
2018-07-29T01:17:18.770Z,24.60
2018-07-29T01:17:50.488Z,24.50
2018-07-29T01:18:22.223Z,24.50
2018-07-29T01:18:53.941Z,24.50
2018-07-29T01:19:25.772Z,24.50
2018-07-29T01:19:57.543Z,24.50
2018-07-29T01:20:29.385Z,24.50
2018-07-29T01:21:01.104Z,24.50
2018-07-29T01:21:32.825Z,24.50
2018-07-29T01:22:04.574Z,24.60
2018-07-29T01:22:36.276Z,24.50
2018-07-29T01:23:08.140Z,24.60
2018-07-29T01:23:39.860Z,24.60
2018-07-29T01:24:11.629Z,24.60
2018-07-29T01:25:16.482Z,24.60
2018-07-29T01:25:48.650Z,24.50
2018-07-29T01:26:20.446Z,24.50
2018-07-29T01:26:52.186Z,24.50
2018-07-29T01:27:23.903Z,24.50
2018-07-29T01:27:55.642Z,24.50
2018-07-29T01:28:27.441Z,24.50
2018-07-29T01:28:59.165Z,24.50
2018-07-29T01:29:30.886Z,24.50
2018-07-29T01:30:02.632Z,24.50
2018-07-29T01:30:34.378Z,24.50
2018-07-29T01:31:06.118Z,24.60
2018-07-29T01:31:37.888Z,24.50
2018-07-29T01:32:09.583Z,24.60
2018-07-29T01:32:41.306Z,24.60
2018-07-29T01:33:13.037Z,24.60
2018-07-29T01:33:44.793Z,24.60
2018-07-29T01:34:16.559Z,24.60
2018-07-29T01:34:48.292Z,24.50
2018-07-29T01:35:19.998Z,24.60
2018-07-29T01:35:51.730Z,24.60
2018-07-29T01:36:23.498Z,24.60
2018-07-29T01:36:55.199Z,24.60
2018-07-29T01:37:26.928Z,24.60
2018-07-29T01:37:58.644Z,24.60
2018-07-29T01:38:30.367Z,24.60
2018-07-29T01:39:02.115Z,24.60
2018-07-29T01:39:33.845Z,24.60
2018-07-29T01:40:05.565Z,24.60
2018-07-29T01:40:37.284Z,24.60
2018-07-29T01:41:09.035Z,24.60
2018-07-29T01:41:40.774Z,24.60
2018-07-29T01:42:12.492Z,24.60
2018-07-29T01:42:44.239Z,24.60
2018-07-29T01:43:15.968Z,24.50
2018-07-29T01:43:47.684Z,24.50
2018-07-29T01:44:19.415Z,24.50
2018-07-29T01:44:51.142Z,24.50
2018-07-29T01:45:22.874Z,24.50
2018-07-29T01:45:54.593Z,24.50
2018-07-29T01:46:26.322Z,24.50
2018-07-29T01:46:58.133Z,24.50
2018-07-29T01:47:29.878Z,24.50
2018-07-29T01:48:01.705Z,24.50
2018-07-29T01:48:33.401Z,24.50
2018-07-29T01:49:05.160Z,24.50
2018-07-29T01:49:36.880Z,24.50
2018-07-29T01:50:08.609Z,24.50
2018-07-29T01:50:40.348Z,24.50
2018-07-29T01:51:12.067Z,24.50
2018-07-29T01:51:43.893Z,24.50
2018-07-29T01:52:15.616Z,24.50
2018-07-29T01:52:47.353Z,24.50
2018-07-29T01:53:19.096Z,24.50
2018-07-29T01:53:50.823Z,24.40
2018-07-29T01:54:22.556Z,24.40
2018-07-29T01:54:54.270Z,24.50
2018-07-29T01:55:25.997Z,24.40
2018-07-29T01:55:57.725Z,24.40
2018-07-29T01:56:29.438Z,24.50
2018-07-29T01:57:01.215Z,24.40
2018-07-29T01:57:32.953Z,24.50
2018-07-29T01:58:04.694Z,24.40
2018-07-29T01:58:36.417Z,24.40
2018-07-29T01:59:08.198Z,24.40
2018-07-29T01:59:39.924Z,24.40
2018-07-29T02:00:11.650Z,24.40
2018-07-29T02:00:43.386Z,24.30
2018-07-29T02:01:15.116Z,24.40
2018-07-29T02:01:46.825Z,24.30
2018-07-29T02:02:18.564Z,24.30
2018-07-29T02:02:50.277Z,24.30
2018-07-29T02:03:22.006Z,24.30
2018-07-29T02:03:53.735Z,24.30
2018-07-29T02:04:25.453Z,24.30
2018-07-29T02:04:57.182Z,24.30
2018-07-29T02:05:28.925Z,24.30
2018-07-29T02:06:00.646Z,24.30
2018-07-29T02:06:32.373Z,24.30
2018-07-29T02:07:04.095Z,24.30
2018-07-29T02:07:35.832Z,24.40
2018-07-29T02:08:07.548Z,24.30
2018-07-29T02:08:39.269Z,24.30
2018-07-29T02:09:11.002Z,24.30
2018-07-29T02:09:42.747Z,24.40
2018-07-29T02:10:14.456Z,24.30
2018-07-29T02:10:46.164Z,24.40
2018-07-29T02:11:17.899Z,24.40
2018-07-29T02:11:49.622Z,24.40
2018-07-29T02:12:21.365Z,24.40
2018-07-29T02:12:53.085Z,24.40
2018-07-29T02:13:24.810Z,24.30
2018-07-29T02:13:56.533Z,24.30
2018-07-29T02:14:28.264Z,24.30
2018-07-29T02:14:59.988Z,24.30
2018-07-29T02:15:31.733Z,24.30
2018-07-29T02:16:03.466Z,24.30
2018-07-29T02:16:35.195Z,24.30
2018-07-29T02:17:06.931Z,24.30
2018-07-29T02:17:38.647Z,24.30
2018-07-29T02:18:10.369Z,24.30
2018-07-29T02:18:42.093Z,24.40
2018-07-29T02:19:13.832Z,24.30
2018-07-29T02:19:45.558Z,24.40
2018-07-29T02:20:17.400Z,24.30
2018-07-29T02:20:49.103Z,24.40
2018-07-29T02:21:20.839Z,24.30
2018-07-29T02:22:24.613Z,24.30
2018-07-29T02:22:56.333Z,24.30
2018-07-29T02:23:28.083Z,24.30
2018-07-29T02:23:59.851Z,24.30
2018-07-29T02:24:31.582Z,24.30
2018-07-29T02:25:03.315Z,24.30
2018-07-29T02:25:35.062Z,24.30
2018-07-29T02:26:06.780Z,24.30
2018-07-29T02:26:38.501Z,24.30
2018-07-29T02:27:10.233Z,24.30
2018-07-29T02:27:42.025Z,24.30
2018-07-29T02:28:13.745Z,24.30
2018-07-29T02:28:45.480Z,24.30
2018-07-29T02:29:17.206Z,24.20
2018-07-29T02:29:48.970Z,24.30
2018-07-29T02:30:20.710Z,24.20
2018-07-29T02:30:52.441Z,24.20
2018-07-29T02:31:24.162Z,24.20
2018-07-29T02:31:55.895Z,24.20
2018-07-29T02:32:27.632Z,24.20
2018-07-29T02:32:59.354Z,24.20
2018-07-29T02:33:31.085Z,24.20
2018-07-29T02:34:02.832Z,24.30
2018-07-29T02:34:34.544Z,24.20
2018-07-29T02:35:06.321Z,24.20
2018-07-29T02:35:38.046Z,24.30
2018-07-29T02:36:09.765Z,24.30
2018-07-29T02:36:41.521Z,24.30
2018-07-29T02:37:13.234Z,24.20
2018-07-29T02:37:44.975Z,24.20
2018-07-29T02:38:16.701Z,24.20
2018-07-29T02:38:48.423Z,24.20
2018-07-29T02:39:20.141Z,24.20
2018-07-29T02:39:51.859Z,24.20
2018-07-29T02:40:23.679Z,24.20
2018-07-29T02:40:55.585Z,24.20
2018-07-29T02:41:27.325Z,24.20
2018-07-29T02:41:59.037Z,24.20
2018-07-29T02:42:30.837Z,24.20
2018-07-29T02:43:02.560Z,24.20
2018-07-29T02:43:34.297Z,24.20
2018-07-29T02:44:06.025Z,24.20
2018-07-29T02:44:37.955Z,24.20
2018-07-29T02:45:09.682Z,24.20
2018-07-29T02:45:41.450Z,24.20
2018-07-29T02:46:13.180Z,24.20
2018-07-29T02:46:44.909Z,24.20
2018-07-29T02:47:16.631Z,24.20
2018-07-29T02:47:48.411Z,24.20
2018-07-29T02:48:20.158Z,24.20
2018-07-29T02:48:51.846Z,24.20
2018-07-29T02:49:23.561Z,24.30
2018-07-29T02:49:55.303Z,24.20
2018-07-29T02:50:27.021Z,24.20
2018-07-29T02:50:58.765Z,24.30
2018-07-29T02:51:30.484Z,24.20
2018-07-29T02:52:02.219Z,24.20
2018-07-29T02:52:33.942Z,24.30
2018-07-29T02:53:05.681Z,24.30
2018-07-29T02:53:37.405Z,24.30
2018-07-29T02:54:09.144Z,24.30
2018-07-29T02:54:40.865Z,24.30
2018-07-29T02:55:12.794Z,24.30
2018-07-29T02:55:44.553Z,24.30
2018-07-29T02:56:16.270Z,24.30
2018-07-29T02:56:47.994Z,24.30
2018-07-29T02:57:19.728Z,24.30
2018-07-29T02:57:51.471Z,24.30
2018-07-29T02:58:23.207Z,24.30
2018-07-29T02:58:54.947Z,24.30
2018-07-29T02:59:26.786Z,24.30
2018-07-29T02:59:58.597Z,24.20
2018-07-29T03:00:30.531Z,24.20
2018-07-29T03:01:02.259Z,24.20
2018-07-29T03:01:33.998Z,24.30
2018-07-29T03:02:05.726Z,24.20
2018-07-29T03:02:37.463Z,24.20
2018-07-29T03:03:09.191Z,24.20
2018-07-29T03:03:40.906Z,24.20
2018-07-29T03:04:12.640Z,24.30
2018-07-29T03:04:44.393Z,24.20
2018-07-29T03:05:16.186Z,24.20
2018-07-29T03:05:47.937Z,24.20
2018-07-29T03:06:19.850Z,24.20
2018-07-29T03:06:51.573Z,24.20
2018-07-29T03:07:23.307Z,24.20
2018-07-29T03:07:55.032Z,24.20
2018-07-29T03:08:26.741Z,24.20
2018-07-29T03:08:58.488Z,24.30
2018-07-29T03:09:30.416Z,24.20
2018-07-29T03:10:02.151Z,24.30
2018-07-29T03:10:33.869Z,24.30
2018-07-29T03:11:05.598Z,24.30
2018-07-29T03:11:37.325Z,24.30
2018-07-29T03:12:09.057Z,24.30
2018-07-29T03:12:40.785Z,24.30
2018-07-29T03:13:12.514Z,24.30
2018-07-29T03:13:44.242Z,24.30
2018-07-29T03:14:15.968Z,24.30
2018-07-29T03:14:47.689Z,24.30
2018-07-29T03:15:19.422Z,24.30
2018-07-29T03:15:51.185Z,24.30
2018-07-29T03:16:22.906Z,24.30
2018-07-29T03:16:54.628Z,24.30
2018-07-29T03:17:26.376Z,24.30
2018-07-29T03:17:58.158Z,24.30
2018-07-29T03:18:30.019Z,24.20
2018-07-29T03:19:01.742Z,24.20
2018-07-29T03:19:33.486Z,24.10
2018-07-29T03:20:05.235Z,24.10
2018-07-29T03:20:36.942Z,24.10
2018-07-29T03:21:08.661Z,24.10
2018-07-29T03:21:40.385Z,24.10
2018-07-29T03:22:12.158Z,24.10
2018-07-29T03:22:43.876Z,24.10
2018-07-29T03:23:15.629Z,24.10
2018-07-29T03:23:47.385Z,24.10
2018-07-29T03:24:19.115Z,24.10
2018-07-29T03:24:50.833Z,24.10
2018-07-29T03:25:22.577Z,24.10
2018-07-29T03:25:54.337Z,24.20
2018-07-29T03:26:26.112Z,24.20
2018-07-29T03:26:57.835Z,24.10
2018-07-29T03:27:29.553Z,24.10
2018-07-29T03:28:01.315Z,24.10
2018-07-29T03:28:33.049Z,24.10
2018-07-29T03:29:04.972Z,24.10
2018-07-29T03:29:36.693Z,24.10
2018-07-29T03:30:08.427Z,24.10
2018-07-29T03:30:40.344Z,24.10
2018-07-29T03:31:12.093Z,24.10
2018-07-29T03:31:43.817Z,24.10
2018-07-29T03:32:15.558Z,24.10
2018-07-29T03:32:47.477Z,24.10
2018-07-29T03:33:19.194Z,24.10
2018-07-29T03:33:50.916Z,24.10
2018-07-29T03:34:22.645Z,24.10
2018-07-29T03:34:54.386Z,24.10
2018-07-29T03:35:26.126Z,24.10
2018-07-29T03:35:57.861Z,24.10
2018-07-29T03:36:29.618Z,24.10
2018-07-29T03:37:01.409Z,24.10
2018-07-29T03:37:33.125Z,24.10
2018-07-29T03:38:04.867Z,24.10
2018-07-29T03:38:36.648Z,24.10
2018-07-29T03:39:08.373Z,24.10
2018-07-29T03:39:40.117Z,24.10
2018-07-29T03:40:11.847Z,24.10
2018-07-29T03:40:43.574Z,24.10
2018-07-29T03:41:15.306Z,24.10
2018-07-29T03:41:47.039Z,24.20
2018-07-29T03:42:18.783Z,24.10
2018-07-29T03:42:50.513Z,24.20
2018-07-29T03:43:22.238Z,24.20
2018-07-29T03:43:53.985Z,24.20
2018-07-29T03:44:25.695Z,24.20
2018-07-29T03:44:57.430Z,24.20
2018-07-29T03:45:29.165Z,24.20
2018-07-29T03:46:00.893Z,24.20
2018-07-29T03:46:32.654Z,24.20
2018-07-29T03:47:04.417Z,24.20
2018-07-29T03:47:36.127Z,24.20
2018-07-29T03:48:07.846Z,24.20
2018-07-29T03:48:39.581Z,24.10
2018-07-29T03:49:11.300Z,24.10
2018-07-29T03:49:43.025Z,24.10
2018-07-29T03:50:14.766Z,24.10
2018-07-29T03:50:46.476Z,24.20
2018-07-29T03:51:18.209Z,24.10
2018-07-29T03:52:22.196Z,24.10
2018-07-29T03:52:53.918Z,24.10
2018-07-29T03:53:25.844Z,24.10
2018-07-29T03:53:57.569Z,24.10
2018-07-29T03:54:29.290Z,24.10
2018-07-29T03:55:01.014Z,24.10
2018-07-29T03:55:32.743Z,24.10
2018-07-29T03:56:04.470Z,24.20
2018-07-29T03:56:36.188Z,24.10
2018-07-29T03:57:39.912Z,24.10
2018-07-29T03:58:11.649Z,24.10
2018-07-29T03:58:43.390Z,24.10
2018-07-29T03:59:15.122Z,24.10
2018-07-29T03:59:47.035Z,24.10
2018-07-29T04:00:18.758Z,24.10
2018-07-29T04:00:50.497Z,24.10
2018-07-29T04:01:22.236Z,24.10
2018-07-29T04:01:53.999Z,24.10
2018-07-29T04:02:25.733Z,24.10
2018-07-29T04:02:57.458Z,24.10
2018-07-29T04:03:29.205Z,24.10
2018-07-29T04:04:00.937Z,24.10
2018-07-29T04:04:32.670Z,24.10
2018-07-29T04:05:04.482Z,24.10
2018-07-29T04:05:36.189Z,24.10
2018-07-29T04:06:07.928Z,24.10
2018-07-29T04:06:39.681Z,24.10
2018-07-29T04:07:11.410Z,24.10
2018-07-29T04:07:43.137Z,24.10
2018-07-29T04:08:14.947Z,24.10
2018-07-29T04:08:46.654Z,24.10
2018-07-29T04:09:18.384Z,24.10
2018-07-29T04:09:50.122Z,24.10
2018-07-29T04:10:21.844Z,24.10
2018-07-29T04:10:53.579Z,24.10
2018-07-29T04:11:25.343Z,24.10
2018-07-29T04:11:57.292Z,24.20
2018-07-29T04:12:29.190Z,24.10
2018-07-29T04:13:00.914Z,24.20
2018-07-29T04:13:32.650Z,24.20
2018-07-29T04:14:04.362Z,24.20
2018-07-29T04:14:36.104Z,24.20
2018-07-29T04:15:07.844Z,24.20
2018-07-29T04:15:39.584Z,24.20
2018-07-29T04:16:11.296Z,24.20
2018-07-29T04:16:43.027Z,24.20
2018-07-29T04:17:14.766Z,24.20
2018-07-29T04:17:46.549Z,24.20
2018-07-29T04:18:50.311Z,24.20
2018-07-29T04:19:22.041Z,24.10
2018-07-29T04:19:53.778Z,24.20
2018-07-29T04:20:25.549Z,24.10
2018-07-29T04:20:57.451Z,24.10
2018-07-29T04:21:29.174Z,24.10
2018-07-29T04:22:00.913Z,24.10
2018-07-29T04:22:32.625Z,24.10
2018-07-29T04:23:04.365Z,24.10
2018-07-29T04:23:36.114Z,24.10
2018-07-29T04:24:07.845Z,24.10
2018-07-29T04:24:39.578Z,24.10
2018-07-29T04:25:11.324Z,24.10
2018-07-29T04:25:43.046Z,24.10
2018-07-29T04:26:14.819Z,24.10
2018-07-29T04:27:18.712Z,24.10
2018-07-29T04:27:50.428Z,24.00
2018-07-29T04:28:22.162Z,24.10
2018-07-29T04:28:53.872Z,24.10
2018-07-29T04:29:25.597Z,24.10
2018-07-29T04:29:57.322Z,24.00
2018-07-29T04:30:29.051Z,24.00
2018-07-29T04:31:00.771Z,24.00
2018-07-29T04:31:32.495Z,24.00
2018-07-29T04:32:04.231Z,24.00
2018-07-29T04:32:35.959Z,24.10
2018-07-29T04:33:07.687Z,24.00
2018-07-29T04:33:39.425Z,24.00
2018-07-29T04:34:11.140Z,24.00
2018-07-29T04:34:42.852Z,24.00
2018-07-29T04:35:14.581Z,24.00
2018-07-29T04:35:46.306Z,24.00
2018-07-29T04:36:18.043Z,24.00
2018-07-29T04:36:49.762Z,24.00
2018-07-29T04:37:21.487Z,24.00
2018-07-29T04:37:53.213Z,24.00
2018-07-29T04:38:24.942Z,24.00
2018-07-29T04:38:56.676Z,24.00
2018-07-29T04:39:28.387Z,24.00
2018-07-29T04:40:00.126Z,24.00
2018-07-29T04:40:31.864Z,24.10
2018-07-29T04:41:03.584Z,24.00
2018-07-29T04:41:35.317Z,24.10
2018-07-29T04:42:07.041Z,24.00
2018-07-29T04:42:38.777Z,24.00
2018-07-29T04:43:10.515Z,24.00
2018-07-29T04:43:42.257Z,24.10
2018-07-29T04:44:13.974Z,24.00
2018-07-29T04:44:45.711Z,24.00
2018-07-29T04:45:17.496Z,24.00
2018-07-29T04:45:49.374Z,24.10
2018-07-29T04:46:21.100Z,24.10
2018-07-29T04:46:52.834Z,24.00
2018-07-29T04:47:24.560Z,24.00
2018-07-29T04:47:56.299Z,24.00
2018-07-29T04:48:28.025Z,24.00
2018-07-29T04:48:59.776Z,24.00
2018-07-29T04:49:31.491Z,24.00
2018-07-29T04:50:03.214Z,24.00
2018-07-29T04:50:34.942Z,24.00
2018-07-29T04:51:06.674Z,24.00
2018-07-29T04:51:38.400Z,23.90
2018-07-29T04:52:10.187Z,23.90
2018-07-29T04:52:41.890Z,23.90
2018-07-29T04:53:13.591Z,23.90
2018-07-29T04:53:45.599Z,23.90
2018-07-29T04:54:17.320Z,23.90
2018-07-29T04:54:49.061Z,23.90
2018-07-29T04:55:20.777Z,24.00
2018-07-29T04:55:52.504Z,24.00
2018-07-29T04:56:24.233Z,24.00
2018-07-29T04:56:55.959Z,24.00
2018-07-29T04:57:27.696Z,24.00
2018-07-29T04:57:59.505Z,24.00
2018-07-29T04:58:31.237Z,24.00
2018-07-29T04:59:02.977Z,24.00
2018-07-29T04:59:34.713Z,24.00
2018-07-29T05:00:06.443Z,24.00
2018-07-29T05:00:38.161Z,24.00
2018-07-29T05:01:09.896Z,23.90
2018-07-29T05:01:41.613Z,24.00
2018-07-29T05:02:13.342Z,24.00
2018-07-29T05:02:45.109Z,24.00
2018-07-29T05:03:16.853Z,24.00
2018-07-29T05:03:48.565Z,24.00
2018-07-29T05:04:20.307Z,24.00
2018-07-29T05:04:52.031Z,24.00
2018-07-29T05:05:23.750Z,24.00
2018-07-29T05:05:55.488Z,24.00
2018-07-29T05:06:27.217Z,24.00
2018-07-29T05:06:58.944Z,24.00
2018-07-29T05:07:30.701Z,24.00
2018-07-29T05:08:02.486Z,24.00
2018-07-29T05:08:34.221Z,24.00
2018-07-29T05:09:05.933Z,24.00
2018-07-29T05:09:37.752Z,24.00
2018-07-29T05:10:09.439Z,24.00
2018-07-29T05:10:41.157Z,24.00
2018-07-29T05:11:12.900Z,24.00
2018-07-29T05:11:44.629Z,24.00
2018-07-29T05:12:16.360Z,24.00
2018-07-29T05:12:48.082Z,24.00
2018-07-29T05:13:19.807Z,24.00
2018-07-29T05:13:51.544Z,24.00
2018-07-29T05:14:23.270Z,24.00
2018-07-29T05:14:54.989Z,24.00
2018-07-29T05:15:26.714Z,24.00
2018-07-29T05:15:58.441Z,24.00
2018-07-29T05:16:30.166Z,24.00
2018-07-29T05:17:01.898Z,24.00
2018-07-29T05:17:33.621Z,24.00
2018-07-29T05:18:05.352Z,24.00
2018-07-29T05:18:37.111Z,24.00
2018-07-29T05:19:09.013Z,24.00
2018-07-29T05:19:40.751Z,24.00
2018-07-29T05:20:12.481Z,24.00
2018-07-29T05:20:44.413Z,24.00
2018-07-29T05:21:16.139Z,24.00
2018-07-29T05:21:47.883Z,24.00
2018-07-29T05:22:19.618Z,24.00
2018-07-29T05:22:51.351Z,24.00
2018-07-29T05:23:23.075Z,24.00
2018-07-29T05:24:26.783Z,24.00
2018-07-29T05:24:58.527Z,24.00
2018-07-29T05:25:30.473Z,24.00
2018-07-29T05:26:02.218Z,24.00
2018-07-29T05:26:34.097Z,24.00
2018-07-29T05:27:05.833Z,24.10
2018-07-29T05:27:37.567Z,24.00
2018-07-29T05:28:09.291Z,24.00
2018-07-29T05:28:41.013Z,24.00
2018-07-29T05:29:12.726Z,24.10
2018-07-29T05:29:44.453Z,24.00
2018-07-29T05:30:16.186Z,24.00
2018-07-29T05:30:47.902Z,24.10
2018-07-29T05:31:19.627Z,24.10
2018-07-29T05:31:51.346Z,24.10
2018-07-29T05:32:23.070Z,24.10
2018-07-29T05:32:54.789Z,24.10
2018-07-29T05:33:26.514Z,24.10
2018-07-29T05:33:58.236Z,24.00
2018-07-29T05:34:29.966Z,24.00
2018-07-29T05:35:01.691Z,24.00
2018-07-29T05:35:33.417Z,24.00
2018-07-29T05:36:05.126Z,24.00
2018-07-29T05:36:36.854Z,24.00
2018-07-29T05:37:08.581Z,24.00
2018-07-29T05:37:40.314Z,24.00
2018-07-29T05:38:12.037Z,23.90
2018-07-29T05:38:43.817Z,23.90
2018-07-29T05:39:15.692Z,23.90
2018-07-29T05:39:47.412Z,23.90
2018-07-29T05:40:19.142Z,23.90
2018-07-29T05:40:50.868Z,23.90
2018-07-29T05:41:22.601Z,23.90
2018-07-29T05:41:54.318Z,23.90
2018-07-29T05:42:26.045Z,23.90
2018-07-29T05:42:57.768Z,23.90
2018-07-29T05:43:29.522Z,23.90
2018-07-29T05:44:01.267Z,23.80
2018-07-29T05:44:32.989Z,23.80
2018-07-29T05:45:04.710Z,23.90
2018-07-29T05:45:36.454Z,23.90
2018-07-29T05:46:08.179Z,23.90
2018-07-29T05:46:39.935Z,23.90
2018-07-29T05:47:11.657Z,23.90
2018-07-29T05:47:43.376Z,23.90
2018-07-29T05:48:15.093Z,23.90
2018-07-29T05:48:46.861Z,24.00
2018-07-29T05:49:18.586Z,24.00
2018-07-29T05:49:50.308Z,24.00
2018-07-29T05:50:22.041Z,24.00
2018-07-29T05:50:53.765Z,24.00
2018-07-29T05:51:57.534Z,24.10
2018-07-29T05:52:29.264Z,24.10
2018-07-29T05:53:00.985Z,24.10
2018-07-29T05:53:32.722Z,24.10
2018-07-29T05:54:04.443Z,24.10
2018-07-29T05:54:36.179Z,24.10
2018-07-29T05:55:40.003Z,24.20
2018-07-29T05:56:11.882Z,24.20
2018-07-29T05:56:43.611Z,24.20
2018-07-29T05:57:15.330Z,24.20
2018-07-29T05:57:47.058Z,24.20
2018-07-29T05:58:18.793Z,24.20
2018-07-29T05:58:50.769Z,24.20
2018-07-29T05:59:22.496Z,24.20
2018-07-29T05:59:54.235Z,24.30
2018-07-29T06:00:25.956Z,24.30
2018-07-29T06:00:57.687Z,24.30
2018-07-29T06:01:29.411Z,24.30
2018-07-29T06:02:01.192Z,24.30
2018-07-29T06:02:32.917Z,24.30
2018-07-29T06:03:04.651Z,24.30
2018-07-29T06:03:36.390Z,24.30
2018-07-29T06:04:40.340Z,24.30
2018-07-29T06:05:12.065Z,24.30
2018-07-29T06:05:43.799Z,24.30
2018-07-29T06:06:15.514Z,24.30
2018-07-29T06:06:47.236Z,24.30
2018-07-29T06:07:18.965Z,24.40
2018-07-29T06:07:50.678Z,24.30
2018-07-29T06:08:22.401Z,24.40
2018-07-29T06:08:54.156Z,24.40
2018-07-29T06:09:25.887Z,24.40
2018-07-29T06:09:57.615Z,24.30
2018-07-29T06:10:29.348Z,24.30
2018-07-29T06:11:33.103Z,24.40
2018-07-29T06:12:05.021Z,24.40
2018-07-29T06:12:36.745Z,24.30
2018-07-29T06:13:08.488Z,24.30
2018-07-29T06:13:40.211Z,24.30
2018-07-29T06:14:11.937Z,24.30
2018-07-29T06:14:43.656Z,24.30
2018-07-29T06:15:15.377Z,24.20
2018-07-29T06:15:47.104Z,24.30
2018-07-29T06:16:18.834Z,24.20
2018-07-29T06:16:50.565Z,24.20
2018-07-29T06:17:22.271Z,24.20
2018-07-29T06:17:53.997Z,24.20
2018-07-29T06:18:25.718Z,24.20
2018-07-29T06:18:57.444Z,24.20
2018-07-29T06:19:29.197Z,24.20
2018-07-29T06:20:00.984Z,24.20
2018-07-29T06:20:32.675Z,24.20
2018-07-29T06:21:04.390Z,24.20
2018-07-29T06:21:36.138Z,24.20
2018-07-29T06:22:07.913Z,24.20
2018-07-29T06:22:39.637Z,24.20
2018-07-29T06:23:11.383Z,24.20
2018-07-29T06:23:43.114Z,24.20
2018-07-29T06:24:14.826Z,24.20
2018-07-29T06:24:46.559Z,24.30
2018-07-29T06:25:18.278Z,24.30
2018-07-29T06:25:50.015Z,24.30
2018-07-29T06:26:21.737Z,24.30
2018-07-29T06:26:53.470Z,24.30
2018-07-29T06:27:25.416Z,24.40
2018-07-29T06:27:57.138Z,24.40
2018-07-29T06:28:28.862Z,24.40
2018-07-29T06:29:00.580Z,24.40
2018-07-29T06:29:32.301Z,24.40
2018-07-29T06:30:04.013Z,24.40
2018-07-29T06:30:35.745Z,24.40
2018-07-29T06:31:07.479Z,24.40
2018-07-29T06:31:39.207Z,24.40
2018-07-29T06:32:10.934Z,24.40
2018-07-29T06:32:42.679Z,24.40
2018-07-29T06:33:14.408Z,24.40
2018-07-29T06:33:46.134Z,24.40
2018-07-29T06:34:17.859Z,24.40
2018-07-29T06:34:49.585Z,24.40
2018-07-29T06:35:21.306Z,24.40
2018-07-29T06:35:53.047Z,24.40
2018-07-29T06:36:24.978Z,24.40
2018-07-29T06:36:56.702Z,24.40
2018-07-29T06:37:28.421Z,24.40
2018-07-29T06:38:32.129Z,24.50
2018-07-29T06:39:03.907Z,24.50
2018-07-29T06:39:35.628Z,24.50
2018-07-29T06:40:07.352Z,24.50
2018-07-29T06:40:39.090Z,24.50
2018-07-29T06:41:10.809Z,24.50
2018-07-29T06:41:42.544Z,24.50
2018-07-29T06:42:14.270Z,24.40
2018-07-29T06:42:45.998Z,24.40
2018-07-29T06:43:17.737Z,24.40
2018-07-29T06:43:49.446Z,24.40
2018-07-29T06:44:21.172Z,24.40
2018-07-29T06:44:52.905Z,24.40
2018-07-29T06:45:24.648Z,24.40
2018-07-29T06:45:56.374Z,24.40
2018-07-29T06:46:28.141Z,24.40
2018-07-29T06:46:59.845Z,24.40
2018-07-29T06:47:31.597Z,24.40
2018-07-29T06:48:03.320Z,24.50
2018-07-29T06:48:35.054Z,24.40
2018-07-29T06:49:06.801Z,24.40
2018-07-29T06:49:38.502Z,24.40
2018-07-29T06:50:10.225Z,24.50
2018-07-29T06:50:42.004Z,24.50
2018-07-29T06:51:13.909Z,24.50
2018-07-29T06:51:45.647Z,24.50
2018-07-29T06:52:18.126Z,24.50
2018-07-29T06:52:50.285Z,24.50
2018-07-29T06:53:22.011Z,24.50
2018-07-29T06:53:53.730Z,24.50
2018-07-29T06:54:25.467Z,24.50
2018-07-29T06:54:57.195Z,24.50
2018-07-29T06:55:28.922Z,24.50